createdAt,value
2023-04-12T00:00:33.324Z,8.16
2023-04-12T00:03:03.333Z,8.23
2023-04-12T00:05:31.902Z,8.15
2023-04-12T00:08:02.512Z,8.15
2023-04-12T00:10:30.907Z,8.16
2023-04-12T00:13:00.639Z,8.18
2023-04-12T00:15:29.485Z,8.14
2023-04-12T00:17:57.911Z,8.04
2023-04-12T00:20:27.375Z,8.03
2023-04-12T00:22:57.848Z,7.94
2023-04-12T00:25:26.907Z,7.91
2023-04-12T00:27:55.265Z,8.06
2023-04-12T00:30:25.148Z,8.11
2023-04-12T00:32:53.699Z,8.11
2023-04-12T00:35:22.043Z,8.07
2023-04-12T00:37:52.456Z,8.04
2023-04-12T00:40:21.084Z,7.99
2023-04-12T00:42:49.628Z,7.98
2023-04-12T00:45:17.963Z,7.96
2023-04-12T00:47:48.279Z,7.96
2023-04-12T00:50:16.852Z,7.98
2023-04-12T00:52:45.265Z,8.08
2023-04-12T00:55:13.695Z,8.08
2023-04-12T00:57:42.073Z,8.04
2023-04-12T01:00:13.881Z,7.98
2023-04-12T01:02:47.980Z,8.01
2023-04-12T01:05:22.991Z,7.96
2023-04-12T01:08:05.028Z,7.90
2023-04-12T01:10:42.422Z,7.86
2023-04-12T01:13:23.112Z,7.97
2023-04-12T01:15:59.317Z,7.89
2023-04-12T01:18:31.944Z,7.81
2023-04-12T01:21:08.852Z,7.85
2023-04-12T01:23:55.573Z,7.85
2023-04-12T01:26:35.296Z,7.75
2023-04-12T01:29:11.519Z,7.88
2023-04-12T01:31:42.685Z,7.91
2023-04-12T01:34:13.563Z,7.89
2023-04-12T01:36:46.182Z,7.87
2023-04-12T01:39:14.690Z,7.88
2023-04-12T01:41:45.418Z,7.83
2023-04-12T01:44:22.176Z,7.89
2023-04-12T01:46:51.868Z,7.88
2023-04-12T01:49:20.880Z,7.85
2023-04-12T01:51:54.075Z,7.83
2023-04-12T01:54:27.604Z,7.81
2023-04-12T01:56:59.324Z,7.86
2023-04-12T01:59:34.200Z,7.87
2023-04-12T02:02:04.353Z,7.84
2023-04-12T02:04:33.907Z,7.79
2023-04-12T02:07:02.708Z,7.81
2023-04-12T02:09:31.332Z,7.69
2023-04-12T02:12:01.247Z,7.81
2023-04-12T02:14:31.624Z,7.81
2023-04-12T02:17:02.513Z,7.76
2023-04-12T02:19:31.507Z,7.81
2023-04-12T02:22:00.027Z,7.80
2023-04-12T02:24:28.457Z,7.84
2023-04-12T02:26:56.922Z,7.85
2023-04-12T02:29:25.166Z,7.84
2023-04-12T02:31:54.965Z,7.83
2023-04-12T02:34:23.276Z,7.84
2023-04-12T02:36:51.850Z,7.81
2023-04-12T02:39:22.358Z,7.73
2023-04-12T02:41:50.952Z,7.82
2023-04-12T02:44:19.425Z,7.78
2023-04-12T02:46:47.910Z,7.79
2023-04-12T02:49:17.683Z,7.73
2023-04-12T02:51:46.780Z,7.72
2023-04-12T02:54:15.330Z,7.74
2023-04-12T02:56:44.894Z,7.84
2023-04-12T02:59:13.280Z,7.79
2023-04-12T03:01:46.825Z,7.79
2023-04-12T03:04:16.590Z,7.80
2023-04-12T03:06:53.934Z,7.80
2023-04-12T03:09:22.357Z,7.85
2023-04-12T03:11:50.951Z,7.75
2023-04-12T03:14:19.685Z,7.84
2023-04-12T03:16:49.202Z,7.86
2023-04-12T03:19:18.141Z,7.86
2023-04-12T03:21:48.152Z,7.80
2023-04-12T03:24:17.092Z,7.79
2023-04-12T03:26:45.482Z,7.78
2023-04-12T03:29:14.126Z,7.82
2023-04-12T03:31:42.568Z,7.80
2023-04-12T03:34:10.977Z,7.85
2023-04-12T03:36:39.591Z,7.75
2023-04-12T03:39:09.315Z,7.75
2023-04-12T03:41:37.694Z,7.80
2023-04-12T03:44:07.765Z,7.80
2023-04-12T03:46:36.471Z,7.87
2023-04-12T03:49:04.933Z,7.81
2023-04-12T03:51:33.337Z,7.80
2023-04-12T03:54:02.941Z,7.83
2023-04-12T03:56:32.731Z,7.91
2023-04-12T03:59:01.473Z,7.90
2023-04-12T04:01:29.914Z,7.86
2023-04-12T04:03:58.556Z,7.86
2023-04-12T04:06:27.892Z,7.92
2023-04-12T04:08:56.544Z,7.92
2023-04-12T04:11:25.793Z,7.91
2023-04-12T04:13:56.196Z,7.98
2023-04-12T04:16:24.826Z,7.94
2023-04-12T04:18:53.401Z,7.96
2023-04-12T04:21:22.457Z,7.97
2023-04-12T04:23:52.042Z,7.98
2023-04-12T04:26:21.193Z,7.93
2023-04-12T04:28:50.642Z,8.05
2023-04-12T04:31:22.404Z,8.07
2023-04-12T04:33:51.958Z,8.31
2023-04-12T04:36:20.782Z,9.38
2023-04-12T04:38:49.487Z,9.90
2023-04-12T04:41:22.843Z,10.56
2023-04-12T04:43:51.633Z,11.05
2023-04-12T04:46:22.344Z,11.51
2023-04-12T04:48:55.265Z,12.68
2023-04-12T04:51:23.888Z,12.45
2023-04-12T04:53:52.370Z,11.83
2023-04-12T04:56:23.190Z,11.86
2023-04-12T04:58:51.666Z,11.22
2023-04-12T05:01:21.515Z,10.46
2023-04-12T05:03:50.165Z,10.16
2023-04-12T05:06:19.159Z,9.73
2023-04-12T05:08:47.581Z,9.52
2023-04-12T05:11:16.302Z,9.25
2023-04-12T05:13:44.615Z,9.18
2023-04-12T05:16:13.469Z,9.14
2023-04-12T05:18:43.183Z,9.06
2023-04-12T05:21:11.727Z,9.18
2023-04-12T05:23:45.965Z,9.19
2023-04-12T05:26:14.646Z,9.31
2023-04-12T05:28:43.102Z,9.46
2023-04-12T05:31:11.863Z,9.35
2023-04-12T05:33:40.370Z,9.55
2023-04-12T05:36:11.047Z,9.43
2023-04-12T05:38:39.341Z,9.51
2023-04-12T05:41:08.225Z,9.29
2023-04-12T05:43:37.850Z,9.38
2023-04-12T05:46:08.094Z,9.42
2023-04-12T05:48:36.572Z,9.25
2023-04-12T05:51:05.774Z,9.06
2023-04-12T05:53:35.589Z,9.31
2023-04-12T05:56:03.928Z,9.34
2023-04-12T05:58:33.289Z,9.35
2023-04-12T06:01:01.791Z,9.45
2023-04-12T06:03:32.436Z,9.42
2023-04-12T06:06:02.576Z,9.42
2023-04-12T06:08:31.237Z,9.58
2023-04-12T06:11:01.050Z,9.67
2023-04-12T06:13:29.374Z,9.50
2023-04-12T06:15:57.951Z,9.43
2023-04-12T06:18:26.388Z,9.35
2023-04-12T06:20:54.852Z,9.35
2023-04-12T06:23:23.252Z,9.57
2023-04-12T06:25:53.397Z,9.73
2023-04-12T06:28:23.264Z,9.86
2023-04-12T06:30:51.589Z,9.93
2023-04-12T06:33:22.605Z,10.28
2023-04-12T06:35:51.055Z,10.06
2023-04-12T06:38:20.091Z,10.09
2023-04-12T06:40:48.951Z,10.40
2023-04-12T06:43:20.384Z,10.36
2023-04-12T06:45:50.953Z,10.45
2023-04-12T06:48:24.276Z,11.07
2023-04-12T06:50:52.586Z,11.39
2023-04-12T06:53:20.984Z,11.80
2023-04-12T06:55:49.750Z,11.92
2023-04-12T06:58:18.379Z,11.32
2023-04-12T07:00:46.741Z,11.58
2023-04-12T07:03:16.742Z,11.32
2023-04-12T07:05:45.236Z,11.18
2023-04-12T07:08:13.605Z,11.50
2023-04-12T07:10:41.963Z,11.69
2023-04-12T07:13:10.585Z,11.41
2023-04-12T07:15:38.912Z,11.28
2023-04-12T07:18:07.429Z,10.81
2023-04-12T07:20:37.401Z,10.87
2023-04-12T07:23:05.810Z,11.06
2023-04-12T07:25:34.321Z,11.15
2023-04-12T07:28:03.708Z,11.24
2023-04-12T07:30:32.013Z,11.44
2023-04-12T07:33:12.226Z,11.41
2023-04-12T07:35:48.506Z,11.22
2023-04-12T07:38:17.170Z,11.33
2023-04-12T07:40:47.628Z,11.32
2023-04-12T07:43:18.232Z,11.14
2023-04-12T07:45:46.869Z,11.08
2023-04-12T07:48:15.644Z,11.22
2023-04-12T07:50:46.003Z,11.51
2023-04-12T07:53:23.475Z,11.59
2023-04-12T07:55:53.047Z,11.71
2023-04-12T07:58:22.581Z,11.74
2023-04-12T08:00:51.890Z,11.55
2023-04-12T08:03:20.833Z,11.50
2023-04-12T08:05:53.671Z,11.70
2023-04-12T08:08:23.869Z,11.52
2023-04-12T08:10:52.810Z,11.58
2023-04-12T08:13:21.410Z,11.56
2023-04-12T08:15:49.761Z,11.32
2023-04-12T08:18:18.205Z,11.67
2023-04-12T08:20:47.212Z,12.12
2023-04-12T08:23:16.038Z,12.15
2023-04-12T08:25:46.139Z,12.11
2023-04-12T08:28:14.414Z,12.22
2023-04-12T08:30:44.082Z,12.37
2023-04-12T08:33:12.386Z,12.14
2023-04-12T08:35:41.349Z,11.93
2023-04-12T08:38:09.782Z,11.76
2023-04-12T08:40:38.616Z,11.65
2023-04-12T08:43:10.034Z,11.39
2023-04-12T08:45:39.515Z,11.21
2023-04-12T08:48:07.853Z,10.95
2023-04-12T08:50:36.390Z,11.05
2023-04-12T08:53:05.327Z,11.16
2023-04-12T08:55:33.678Z,11.28
2023-04-12T08:58:07.405Z,11.36
2023-04-12T09:00:38.793Z,11.62
2023-04-12T09:03:07.684Z,11.38
2023-04-12T09:05:36.212Z,11.58
2023-04-12T09:08:05.558Z,11.84
2023-04-12T09:10:36.642Z,12.13
2023-04-12T09:13:05.645Z,11.76
2023-04-12T09:15:36.364Z,11.79
2023-04-12T09:18:06.915Z,11.90
2023-04-12T09:20:35.801Z,11.87
2023-04-12T09:23:19.483Z,12.23
2023-04-12T09:25:51.079Z,12.40
2023-04-12T09:28:21.891Z,12.35
2023-04-12T09:30:55.239Z,12.34
2023-04-12T09:33:34.042Z,12.06
2023-04-12T09:36:03.194Z,12.52
2023-04-12T09:38:32.133Z,12.56
2023-04-12T09:41:20.252Z,12.08
2023-04-12T09:43:49.971Z,12.11
2023-04-12T09:46:20.998Z,12.28
2023-04-12T09:48:53.517Z,12.18
2023-04-12T09:51:29.759Z,11.58
2023-04-12T09:54:01.065Z,11.24
2023-04-12T09:56:32.360Z,11.29
2023-04-12T09:59:04.299Z,11.47
2023-04-12T10:01:37.414Z,11.66
2023-04-12T10:04:08.439Z,11.95
2023-04-12T10:06:38.149Z,11.81
2023-04-12T10:09:08.736Z,12.22
2023-04-12T10:11:42.169Z,12.48
2023-04-12T10:14:12.214Z,12.92
2023-04-12T10:16:43.189Z,12.46
2023-04-12T10:19:13.757Z,12.36
2023-04-12T10:21:42.264Z,11.86
2023-04-12T10:24:11.317Z,11.66
2023-04-12T10:26:44.402Z,11.73
2023-04-12T10:29:26.526Z,11.56
2023-04-12T10:31:57.173Z,11.37
2023-04-12T10:34:28.287Z,11.04
2023-04-12T10:36:57.818Z,11.28
2023-04-12T10:39:40.377Z,11.31
2023-04-12T10:42:23.199Z,11.37
2023-04-12T10:44:53.381Z,11.74
2023-04-12T10:48:03.938Z,11.82
2023-04-12T10:50:33.989Z,11.77
2023-04-12T10:53:26.227Z,11.77
2023-04-12T10:55:54.985Z,11.95
2023-04-12T10:59:05.869Z,12.13
2023-04-12T11:01:38.320Z,12.15
2023-04-12T11:04:10.675Z,12.21
2023-04-12T11:06:52.380Z,12.16
2023-04-12T11:09:26.562Z,12.29
2023-04-12T11:11:59.467Z,12.49
2023-04-12T11:14:31.321Z,12.36
2023-04-12T11:17:24.935Z,12.34
2023-04-12T11:19:57.995Z,12.34
2023-04-12T11:22:28.981Z,12.32
2023-04-12T11:24:59.419Z,12.10
2023-04-12T11:27:29.673Z,11.68
2023-04-12T11:30:03.875Z,11.71
2023-04-12T11:32:34.310Z,11.76
2023-04-12T11:35:04.276Z,11.46
2023-04-12T11:37:33.042Z,11.32
2023-04-12T11:40:01.601Z,11.50
2023-04-12T11:42:30.557Z,11.66
2023-04-12T11:45:04.856Z,11.72
2023-04-12T11:47:36.007Z,11.92
2023-04-12T11:50:06.784Z,11.82
2023-04-12T11:52:35.540Z,11.82
2023-04-12T11:55:06.857Z,11.75
2023-04-12T11:57:36.605Z,11.94
2023-04-12T12:00:07.126Z,12.08
2023-04-12T12:02:46.025Z,12.04
2023-04-12T12:05:22.976Z,12.23
2023-04-12T12:07:54.201Z,11.72
2023-04-12T12:10:40.056Z,12.15
2023-04-12T12:13:12.652Z,12.65
2023-04-12T12:15:41.479Z,12.79
2023-04-12T12:18:11.184Z,12.85
2023-04-12T12:20:49.127Z,12.96
2023-04-12T12:23:30.156Z,12.97
2023-04-12T12:26:14.429Z,12.92
2023-04-12T12:28:50.442Z,12.29
2023-04-12T12:31:21.713Z,12.11
2023-04-12T12:33:52.649Z,12.10
2023-04-12T12:36:22.470Z,11.88
2023-04-12T12:38:54.738Z,11.63
2023-04-12T12:41:25.089Z,11.39
2023-04-12T12:43:54.420Z,11.22
2023-04-12T12:46:22.957Z,11.01
2023-04-12T12:48:51.428Z,10.75
2023-04-12T12:51:21.401Z,10.84
2023-04-12T12:53:49.895Z,10.81
2023-04-12T12:56:18.287Z,10.75
2023-04-12T12:58:46.894Z,10.61
2023-04-12T13:01:15.270Z,10.55
2023-04-12T13:03:43.863Z,10.54
2023-04-12T13:06:12.247Z,10.43
2023-04-12T13:08:42.005Z,10.45
2023-04-12T13:11:12.491Z,10.44
2023-04-12T13:13:40.915Z,10.55
2023-04-12T13:16:09.908Z,10.42
2023-04-12T13:18:38.334Z,10.51
2023-04-12T13:21:07.863Z,10.56
2023-04-12T13:23:36.326Z,10.60
2023-04-12T13:26:06.655Z,10.65
2023-04-12T13:28:35.020Z,10.70
2023-04-12T13:31:03.629Z,10.53
2023-04-12T13:33:32.029Z,10.49
2023-04-12T13:36:00.501Z,10.41
2023-04-12T13:38:28.845Z,10.39
2023-04-12T13:40:57.700Z,10.35
2023-04-12T13:43:27.422Z,10.34
2023-04-12T13:45:56.178Z,10.46
2023-04-12T13:48:24.779Z,10.56
2023-04-12T13:50:55.056Z,10.48
2023-04-12T13:53:23.986Z,10.40
2023-04-12T13:55:52.398Z,10.48
2023-04-12T13:58:20.811Z,10.41
2023-04-12T14:00:50.847Z,10.40
2023-04-12T14:03:19.288Z,10.31
2023-04-12T14:05:47.657Z,10.33
2023-04-12T14:08:16.010Z,10.18
2023-04-12T14:10:45.020Z,10.05
2023-04-12T14:13:14.522Z,10.18
2023-04-12T14:15:42.824Z,10.05
2023-04-12T14:18:12.715Z,10.05
2023-04-12T14:20:41.573Z,9.96
2023-04-12T14:23:10.013Z,9.91
2023-04-12T14:25:40.900Z,9.93
2023-04-12T14:28:09.214Z,9.79
2023-04-12T14:30:37.782Z,9.70
2023-04-12T14:33:12.883Z,9.70
2023-04-12T14:35:41.335Z,9.87
2023-04-12T14:38:09.704Z,9.77
2023-04-12T14:40:38.380Z,9.79
2023-04-12T14:43:07.759Z,9.74
2023-04-12T14:45:38.532Z,9.71
2023-04-12T14:48:07.107Z,9.66
2023-04-12T14:50:38.079Z,9.74
2023-04-12T14:53:06.403Z,9.63
2023-04-12T14:55:34.936Z,9.70
2023-04-12T14:58:03.828Z,9.77
2023-04-12T15:00:32.219Z,9.81
2023-04-12T15:03:00.988Z,9.87
2023-04-12T15:05:29.513Z,9.82
2023-04-12T15:07:59.269Z,9.85
2023-04-12T15:10:28.133Z,9.87
2023-04-12T15:12:58.156Z,9.79
2023-04-12T15:15:26.671Z,9.78
2023-04-12T15:17:55.017Z,9.72
2023-04-12T15:20:23.456Z,9.71
2023-04-12T15:22:51.829Z,9.73
2023-04-12T15:25:22.193Z,9.61
2023-04-12T15:27:50.942Z,9.63
2023-04-12T15:30:19.222Z,9.65
2023-04-12T15:32:47.706Z,9.64
2023-04-12T15:35:26.178Z,9.65
2023-04-12T15:37:55.755Z,9.63
2023-04-12T15:40:25.999Z,9.53
2023-04-12T15:42:54.475Z,9.54
2023-04-12T15:45:23.051Z,9.51
2023-04-12T15:47:51.440Z,9.52
2023-04-12T15:50:20.143Z,9.54
2023-04-12T15:52:48.988Z,9.52
2023-04-12T15:55:20.480Z,9.40
2023-04-12T15:57:50.168Z,9.49
2023-04-12T16:00:24.631Z,9.42
2023-04-12T16:02:55.025Z,9.36
2023-04-12T16:05:24.888Z,9.36
2023-04-12T16:07:53.215Z,9.30
2023-04-12T16:10:22.875Z,9.26
2023-04-12T16:12:54.836Z,9.32
2023-04-12T16:15:23.508Z,9.25
2023-04-12T16:17:54.524Z,9.26
2023-04-12T16:20:23.663Z,9.28
2023-04-12T16:22:57.821Z,9.19
2023-04-12T16:25:28.557Z,9.16
2023-04-12T16:28:02.388Z,9.08
2023-04-12T16:30:30.867Z,9.07
2023-04-12T16:32:59.531Z,9.01
2023-04-12T16:35:28.032Z,8.98
2023-04-12T16:37:56.585Z,9.01
2023-04-12T16:40:25.986Z,8.91
2023-04-12T16:42:54.457Z,8.89
2023-04-12T16:45:24.976Z,8.93
2023-04-12T16:47:54.936Z,9.01
2023-04-12T16:50:24.402Z,8.83
2023-04-12T16:52:52.971Z,8.87
2023-04-12T16:55:21.477Z,8.82
2023-04-12T16:57:53.215Z,8.82
2023-04-12T17:00:25.407Z,8.78
2023-04-12T17:02:55.182Z,8.62
2023-04-12T17:05:24.872Z,8.57
2023-04-12T17:07:55.702Z,8.53
2023-04-12T17:10:25.301Z,8.65
2023-04-12T17:12:56.707Z,8.63
2023-04-12T17:15:28.470Z,8.65
2023-04-12T17:18:03.485Z,8.67
2023-04-12T17:20:32.419Z,8.57
2023-04-12T17:23:01.606Z,8.57
2023-04-12T17:25:31.455Z,8.67
2023-04-12T17:28:00.633Z,8.64
2023-04-12T17:30:30.867Z,8.64
2023-04-12T17:33:01.357Z,8.61
2023-04-12T17:35:30.555Z,8.42
2023-04-12T17:37:58.855Z,8.52
2023-04-12T17:40:27.311Z,8.50
2023-04-12T17:42:56.161Z,8.45
2023-04-12T17:45:24.768Z,8.32
2023-04-12T17:47:54.861Z,8.35
2023-04-12T17:50:23.590Z,8.34
2023-04-12T17:52:51.945Z,8.26
2023-04-12T17:55:23.609Z,8.26
2023-04-12T17:57:52.591Z,8.27
2023-04-12T18:00:23.453Z,8.32
2023-04-12T18:02:52.015Z,8.36
2023-04-12T18:05:22.022Z,8.50
2023-04-12T18:07:50.470Z,8.65
2023-04-12T18:10:21.643Z,8.77
2023-04-12T18:12:50.305Z,8.78
2023-04-12T18:15:19.272Z,8.80
2023-04-12T18:17:47.712Z,8.78
2023-04-12T18:20:16.724Z,8.77
2023-04-12T18:22:46.584Z,8.77
2023-04-12T18:25:14.981Z,8.75
2023-04-12T18:27:43.446Z,8.72
2023-04-12T18:30:12.387Z,8.70
2023-04-12T18:32:40.865Z,8.62
2023-04-12T18:35:10.131Z,8.65
2023-04-12T18:37:38.482Z,8.67
2023-04-12T18:40:10.086Z,8.63
2023-04-12T18:42:39.646Z,8.62
2023-04-12T18:45:09.659Z,8.68
2023-04-12T18:47:39.201Z,8.71
2023-04-12T18:50:08.880Z,8.74
2023-04-12T18:52:37.703Z,8.74
2023-04-12T18:55:08.832Z,8.71
2023-04-12T18:57:37.230Z,8.68
2023-04-12T19:00:10.589Z,8.71
2023-04-12T19:02:39.080Z,8.75
2023-04-12T19:05:09.031Z,8.76
2023-04-12T19:07:37.476Z,8.73
2023-04-12T19:10:08.613Z,8.70
2023-04-12T19:12:37.100Z,8.77
2023-04-12T19:15:07.142Z,8.85
2023-04-12T19:17:38.849Z,8.89
2023-04-12T19:20:09.001Z,8.91
2023-04-12T19:22:37.581Z,8.92
2023-04-12T19:25:08.531Z,8.95
2023-04-12T19:27:37.216Z,8.95
2023-04-12T19:30:06.406Z,8.96
2023-04-12T19:32:34.845Z,8.95
2023-04-12T19:35:06.956Z,8.96
2023-04-12T19:37:35.403Z,8.89
2023-04-12T19:40:04.171Z,9.00
2023-04-12T19:42:33.991Z,9.04
2023-04-12T19:45:02.689Z,9.04
2023-04-12T19:47:33.757Z,9.03
2023-04-12T19:50:02.619Z,8.98
2023-04-12T19:52:30.947Z,9.04
2023-04-12T19:55:01.816Z,9.10
2023-04-12T19:57:30.470Z,9.08
2023-04-12T20:00:00.432Z,9.10
2023-04-12T20:02:29.415Z,9.04
2023-04-12T20:04:57.830Z,9.10
2023-04-12T20:07:26.123Z,9.01
2023-04-12T20:09:54.580Z,9.02
2023-04-12T20:12:22.894Z,9.00
2023-04-12T20:14:51.320Z,9.04
2023-04-12T20:17:22.268Z,9.07
2023-04-12T20:19:55.344Z,9.04
2023-04-12T20:22:24.424Z,9.00
2023-04-12T20:24:54.120Z,9.00
2023-04-12T20:27:23.140Z,8.94
2023-04-12T20:29:52.043Z,9.00
2023-04-12T20:32:23.548Z,8.90
2023-04-12T20:34:52.147Z,8.90
2023-04-12T20:37:20.597Z,8.92
2023-04-12T20:39:50.039Z,8.91
2023-04-12T20:42:20.637Z,8.92
2023-04-12T20:44:49.325Z,8.88
2023-04-12T20:47:19.880Z,8.88
2023-04-12T20:49:56.269Z,8.86
2023-04-12T20:52:25.497Z,8.86
2023-04-12T20:54:54.770Z,8.91
2023-04-12T20:57:23.902Z,8.92
2023-04-12T20:59:52.731Z,8.92
2023-04-12T21:05:08.692Z,8.94
2023-04-12T21:07:37.708Z,8.88
2023-04-12T21:10:07.133Z,8.92
2023-04-12T21:12:36.706Z,8.86
2023-04-12T21:15:06.285Z,8.84
2023-04-12T21:17:35.547Z,8.80
2023-04-12T21:20:13.927Z,8.82
2023-04-12T21:22:47.019Z,8.76
2023-04-12T21:25:17.399Z,8.80
2023-04-12T21:27:47.878Z,8.80
2023-04-12T21:30:16.548Z,8.81
2023-04-12T21:32:44.959Z,8.84
2023-04-12T21:35:18.584Z,8.79
2023-04-12T21:37:48.714Z,8.76
2023-04-12T21:40:17.266Z,8.77
2023-04-12T21:42:46.003Z,8.82
2023-04-12T21:45:14.851Z,8.66
2023-04-12T21:47:44.194Z,8.66
2023-04-12T21:50:14.042Z,8.68
2023-04-12T21:52:44.302Z,8.66
2023-04-12T21:55:14.694Z,8.66
2023-04-12T21:57:42.995Z,8.59
2023-04-12T22:00:12.503Z,8.63
2023-04-12T22:02:41.087Z,8.59
2023-04-12T22:05:09.971Z,8.57
2023-04-12T22:07:41.627Z,8.57
2023-04-12T22:10:12.250Z,8.50
2023-04-12T22:12:42.424Z,8.49
2023-04-12T22:15:13.677Z,8.54
2023-04-12T22:17:42.079Z,8.57
2023-04-12T22:20:11.250Z,8.62
2023-04-12T22:22:39.943Z,8.57
2023-04-12T22:25:12.173Z,8.61
2023-04-12T22:27:42.269Z,8.63
2023-04-12T22:30:11.928Z,8.64
2023-04-12T22:32:40.488Z,8.69
2023-04-12T22:35:10.324Z,8.78
2023-04-12T22:37:41.363Z,8.83
2023-04-12T22:40:13.856Z,8.90
2023-04-12T22:42:47.614Z,8.92
2023-04-12T22:45:16.715Z,8.92
2023-04-12T22:47:45.665Z,8.96
2023-04-12T22:50:14.442Z,9.02
2023-04-12T22:52:42.834Z,9.00
2023-04-12T22:55:14.035Z,9.01
2023-04-12T22:57:43.768Z,9.05
2023-04-12T23:00:17.159Z,9.05
2023-04-12T23:02:47.785Z,9.07
2023-04-12T23:05:16.700Z,9.01
2023-04-12T23:07:45.410Z,9.03
2023-04-12T23:10:13.786Z,8.99
2023-04-12T23:12:43.608Z,8.96
2023-04-12T23:15:12.822Z,8.89
2023-04-12T23:17:41.213Z,8.91
2023-04-12T23:20:13.308Z,8.91
2023-04-12T23:22:57.552Z,8.85
2023-04-12T23:25:38.087Z,8.77
2023-04-12T23:28:12.508Z,8.71
2023-04-12T23:30:43.049Z,8.63
2023-04-12T23:33:12.050Z,8.63
2023-04-12T23:35:41.792Z,8.60
2023-04-12T23:38:10.868Z,8.51
2023-04-12T23:40:39.188Z,8.46
2023-04-12T23:43:09.087Z,8.49
2023-04-12T23:45:38.172Z,8.45
2023-04-12T23:48:07.228Z,8.46
2023-04-12T23:50:35.798Z,8.40
2023-04-12T23:53:04.114Z,8.30
2023-04-12T23:55:32.436Z,8.27
2023-04-12T23:58:00.927Z,8.25
